Flight Track Log - Related Links

Times and Time Zones

All times are in EDT time to prevent confusion due to time zone crossing. See the SWA1841 flight status page for this flight to view local times or setup timezone preferences in your user account.

Time Position Orientation Groundspeed Altitude Reporting Facility
EDT Latitude Longitude Course Direction KTS MPH feet Rate Location/Type
Mon 08:56:24 PM 29.5947 -95.2350 146° Southeast 189 217 3,400  Level Houston Center
Mon 08:57:28 PM 29.5975 -95.1519 88° East 276 318 6,200 3,024 Climbing Houston Center
Mon 08:58:27 PM 29.6114 -95.0656 80° East 282 325 9,600 3,124 Climbing Houston Center
Mon 08:59:29 PM 29.6272 -94.9633 80° East 323 372 12,500 3,000 Climbing Houston Center
Mon 09:00:31 PM 29.6444 -94.8469 80° East 366 421 15,800 3,366 Climbing Houston Center
Mon 09:01:32 PM 29.6628 -94.7253 80° East 381 438 19,400 3,073 Climbing Houston Center
Mon 09:02:34 PM 29.6825 -94.5981 80° East 402 463 22,100 2,516 Climbing Houston Center
Mon 09:03:36 PM 29.7028 -94.4600 80° East 435 501 24,600 2,732 Climbing Houston Center
Mon 09:04:37 PM 29.7153 -94.2869 85° East 458 527 27,700 2,878 Climbing Houston Center
Mon 09:05:39 PM 29.7022 -94.1417 96° East 459 528 30,500 2,195 Climbing Houston Center
Mon 09:06:40 PM 29.7261 -93.9956 79° East 469 540 32,200 1,220 Climbing Houston Center
Mon 09:07:42 PM 29.7572 -93.8439 77° East 487 560 33,000 390 Climbing Houston Center
Mon 09:08:43 PM 29.7878 -93.6881 77° East 499 574 33,000  Level Houston Center
Mon 09:09:45 PM 29.8169 -93.5339 78° East 497 572 33,000 484 Level Houston Center
Mon 09:10:47 PM 29.8475 -93.3786 77° East 498 573 34,000 1,220 Climbing Houston Center
Mon 09:11:48 PM 29.8819 -93.2067 77° East 506 582 35,500 1,561 Climbing Houston Center
Mon 09:12:50 PM 29.9117 -93.0453 78° East 514 592 37,200 1,610 Climbing Houston Center
Mon 09:13:51 PM 29.9436 -92.8872 77° East 512 589 38,800 1,610 Climbing Houston Center
Mon 09:14:53 PM 29.9797 -92.6956 78° East 512 589 40,500 1,073 Climbing Houston Center
Mon 09:15:54 PM 30.0097 -92.5386 78° East 508 585 41,000 246 Climbing Houston Center
Mon 09:16:55 PM 30.0397 -92.3792 78° East 509 586 41,000  Level Houston Center
Mon 09:17:57 PM 30.0697 -92.2200 78° East 512 589 41,000  Level Houston Center
Mon 09:18:58 PM 30.0997 -92.0625 78° East 507 583 41,000  Level Houston Center
Mon 09:20:00 PM 30.1275 -91.9061 78° East 503 579 41,000  Level Houston Center
Mon 09:21:01 PM 30.1561 -91.7483 78° East 503 579 41,000  Level Houston Center
Mon 09:22:02 PM 30.1883 -91.5878 77° East 512 589 41,000  Level Houston Center
Mon 09:23:04 PM 30.2236 -91.3975 78° East 510 587 41,000  Level Houston Center
Mon 09:24:05 PM 30.2503 -91.2378 79° East 508 585 41,000  Level Houston Center
Mon 09:25:06 PM 30.2789 -91.0769 78° East 510 587 41,000  Level Houston Center
Mon 09:26:08 PM 30.3061 -90.9167 79° East 509 586 41,000  Level Houston Center
Mon 09:27:09 PM 30.3350 -90.7561 78° East 510 587 41,000  Level Houston Center
Mon 09:28:10 PM 30.3628 -90.5950 79° East 509 586 41,000  Level Houston Center
Mon 09:29:12 PM 30.3897 -90.4344 79° East 509 586 41,000 -293 Level Houston Center
Mon 09:30:13 PM 30.4169 -90.2736 79° East 508 585 40,400 -787 Descending Houston Center
Mon 09:31:14 PM 30.4450 -90.1119 79° East 510 587 39,400 -927 Descending Houston Center
Mon 09:32:16 PM 30.4717 -89.9486 79° East 511 588 38,500 -927 Descending Houston Center
Mon 09:33:17 PM 30.5017 -89.7831 78° East 513 590 37,500 -738 Descending Houston Center
Mon 09:34:18 PM 30.5267 -89.6169 80° East 511 588 37,000 -738 Descending Houston Center
Mon 09:35:19 PM 30.5519 -89.4583 79° East 498 573 36,000 -683 Descending Houston Center
Mon 09:36:21 PM 30.5767 -89.3025 80° East 491 565 35,600 -780 Descending Houston Center
Mon 09:37:22 PM 30.6033 -89.1197 80° East 480 552 34,400 -1,082 Descending Houston Center
Mon 09:38:23 PM 30.6269 -88.9717 79° East 470 541 33,400 -885 Descending Houston Center
Mon 09:39:24 PM 30.6497 -88.8289 79° East 474 545 32,600 -885 Descending Houston Center
Mon 09:40:25 PM 30.6736 -88.6806 79° East 472 543 31,600 -976 Descending Houston Center
Mon 09:41:27 PM 30.6964 -88.5325 80° East 470 541 30,600 -1,024 Descending Houston Center
Mon 09:42:28 PM 30.7214 -88.3767 79° East 463 533 29,500 -1,033 Descending Houston Center
Mon 09:43:29 PM 30.7328 -88.2308 85° East 455 524 28,500 -984 Descending Houston Center
Mon 09:44:30 PM 30.7417 -88.0869 86° East 449 517 27,500 -984 Descending Houston Center
Mon 09:45:31 PM 30.7511 -87.9472 85° East 435 501 26,500 -976 Descending Houston Center
Mon 09:46:33 PM 30.7597 -87.8089 86° East 428 493 25,500 -732 Descending Houston Center
Mon 09:47:34 PM 30.7700 -87.6631 85° East 420 483 25,000 -250 Descending Houston Center
Mon 09:48:33 PM 30.7769 -87.5322 86° East 418 481 25,000  Level Jacksonville Center
Mon 09:49:32 PM 30.7861 -87.3972 85° East 418 481 25,000  Level Jacksonville Center
Mon 09:50:32 PM 30.7928 -87.2622 87° East 418 481 25,000 -300 Level Jacksonville Center
Mon 09:51:32 PM 30.8014 -87.1319 86° East 418 481 24,400 -1,200 Descending Jacksonville Center
Mon 09:52:32 PM 30.8078 -87.0017 87° East 412 474 22,600 -1,850 Descending Jacksonville Center
Mon 09:53:32 PM 30.8181 -86.8764 85° East 400 460 20,700 -1,900 Descending Jacksonville Center
Mon 09:54:32 PM 30.8217 -86.7556 88° East 389 448 18,800 -1,850 Descending Jacksonville Center
Mon 09:55:32 PM 30.8233 -86.6322 89° East 377 434 17,000 -1,850 Descending Jacksonville Center
Mon 09:56:32 PM 30.8225 -86.5161 90° East 371 427 15,100 -1,850 Descending Jacksonville Center
Mon 09:57:32 PM 30.8194 -86.4025 92° East 359 413 13,300 -1,750 Descending Jacksonville Center
Mon 09:58:32 PM 30.8142 -86.2933 93° East 348 400 11,600 -1,400 Descending Jacksonville Center
Mon 09:59:32 PM 30.8147 -86.1894 90° East 336 387 10,500 -1,400 Descending Jacksonville Center
Mon 10:00:32 PM 30.7878 -86.1039 110° East 317 365 8,800 -1,600 Descending Jacksonville Center
Mon 10:01:32 PM 30.7289 -86.0367 136° Southeast 286 329 7,300 -1,500 Descending Jacksonville Center
Mon 10:02:32 PM 30.6675 -85.9814 142° Southeast 280 322 5,800 -1,450 Descending Jacksonville Center
Mon 10:03:32 PM 30.5997 -85.9358 150° Southeast 280 322 4,400 -1,300 Descending Jacksonville Center
Mon 10:04:32 PM 30.5381 -85.8953 150° Southeast 270 311 3,200 -700 Descending Jacksonville Center
Mon 10:05:32 PM 30.4867 -85.8575 148° Southeast 246 283 3,000 -650 Descending Jacksonville Center
Mon 10:06:32 PM 30.4475 -85.8347 153° Southeast 195 224 1,900 -1,000 Descending Jacksonville Center
Mon 10:07:32 PM 30.4125 -85.8192 159° South 156 180 1,000 -750 Descending Jacksonville Center
Mon 10:08:32 PM 30.3814 -85.8061 160° South 136 157 400 -400 Descending Jacksonville Center
Mon 10:09:32 PM 30.3400 -85.7903 162° South 130 150 200 -200 Descending Jacksonville Center
Mon 10:11:00 PM 30.3500 -85.7833 North  Level FlightAware
Mon 10:18:00 PM 30.3582 -85.7956 North  Level Estimated
Mon 10:19:00 PM 30.3582 -85.7956 North  Level Estimated
Mon 10:20:00 PM 30.3582 -85.7956 North  Level Estimated
Mon 10:21:00 PM 30.3582 -85.7956 North  Level Estimated
Mon 10:22:00 PM 30.3582 -85.7956 North  Level Estimated
Mon 10:23:00 PM 30.3582 -85.7956 North  Level Estimated
Mon 10:24:00 PM 30.3582 -85.7956 North  Level Estimated
Mon 10:25:00 PM 30.3582 -85.7956 North  Level Estimated
Mon 10:26:00 PM 30.3582 -85.7956 North  Level Estimated

Login

Don't have an account? Register now (free) for customized features, flight alerts, and more!